aviador You're here:

YPXM Decoded Metar

CHRISTMAS ISLAND in CHRISTMAS ISLAND
Report Time2017-09-21 19:00:00
UTC Time2017-09-21 19:32:10
Flight Rules mvfr MVFR
Wind140° at 08 kt
W.Decomp.*RWY 18: 6.0 kt HW 5.2 kt LCW
W.Rank140° ranks 4
Current wind is above 140° avg. (7.9)
Visibility9999 m
Phenomena:N/A
Clouds:Scattered 018 Hf
Broken 025 Hf
Expected CloudBase > 1,600 ft AGL from Temp-Dew spread
Ceiling2,500 ft
Temp23°C (ISA +10)
Dew Point19°C (78% RH)
QNH1014 hPa
Density Alt2,234 ft
Elevation850 ft
Report Wrong Elevation
Raw Report
METAR YPXM 211900Z AUTO 14008KT 9999 // SCT018 BKN025 23/19 Q1014=

Extra information for YPXM:More info

Metar Taf Metar & Taf Last 4 Metars F.Rules Stats Wind Profile Meteogram Temp Stats Airport Information Weather charts Add Link Nearby VenuesMetar ALERT Operation Metar Decoded Social comments